Time;durP1;ratioP1;P1;durP2;ratioP2;P2;SDS_P1;SDS_P2;PMS_P1;PMS_P2;Temp;Humidity;BMP_temperature;BMP_pressure;BME280_temperature;BME280_humidity;BME280_pressure;Samples;Min_cycle;Max_cycle;Signal;HPM_P1;HPM_P2
2022/01/20 00:04:20;;;;;;;;;8.50;8.00;;;;;21.19;34.76;102465.41;5058321;28;51419;-56
2022/01/20 00:26:06;;;;;;;;;7.25;7.00;;;;;21.08;35.34;102471.38;5011992;28;51153;-56
2022/01/20 00:28:44;;;;;;;;;8.25;7.00;;;;;21.07;35.30;102469.66;5015115;28;51232;-56
2022/01/20 00:34:16;;;;;;;;;9.50;8.25;;;;;21.04;35.24;102455.19;5031669;27;51090;-56
2022/01/20 00:39:27;;;;;;;;;9.00;6.75;;;;;21.03;35.41;102458.13;5059800;28;51482;-56
2022/01/20 00:41:54;;;;;;;;;8.25;8.00;;;;;21.01;35.33;102449.22;5059660;27;51273;-56
2022/01/20 00:44:21;;;;;;;;;11.25;8.25;;;;;21.01;35.16;102443.69;5059196;28;51118;-55
2022/01/20 00:46:46;;;;;;;;;8.75;8.00;;;;;21.00;35.26;102445.59;5074220;28;51321;-55
2022/01/20 00:49:12;;;;;;;;;8.25;7.75;;;;;20.98;35.20;102455.97;5058945;28;51967;-55
2022/01/20 00:51:37;;;;;;;;;10.75;7.00;;;;;20.98;34.87;102460.63;5074601;28;51177;-56
2022/01/20 00:54:03;;;;;;;;;8.00;7.75;;;;;20.98;35.06;102457.84;5077171;28;51109;-55
2022/01/20 00:56:28;;;;;;;;;8.75;8.00;;;;;20.96;35.15;102457.19;5061398;28;51349;-54
2022/01/20 00:58:54;;;;;;;;;8.00;7.00;;;;;20.95;35.42;102461.00;5061075;28;51057;-55
2022/01/20 01:01:19;;;;;;;;;7.50;7.00;;;;;20.95;35.28;102461.84;5064986;28;51040;-56
2022/01/20 01:03:44;;;;;;;;;7.75;6.00;;;;;20.94;35.14;102451.00;5059921;28;51065;-55
2022/01/20 01:09:11;;;;;;;;;7.25;6.00;;;;;20.92;35.06;102461.34;5004402;28;51344;-54
2022/01/20 01:11:37;;;;;;;;;9.25;8.00;;;;;20.91;34.98;102470.66;5060253;28;51264;-57
2022/01/20 01:14:04;;;;;;;;;5.50;5.25;;;;;20.89;35.42;102470.00;5064288;28;51165;-56
2022/01/20 01:22:21;;;;;;;;;6.25;6.00;;;;;20.87;35.40;102475.69;5074124;28;51507;-54
2022/01/20 01:24:51;;;;;;;;;6.25;6.00;;;;;20.85;35.42;102487.94;5076813;28;51155;-56
2022/01/20 01:27:17;;;;;;;;;6.50;5.25;;;;;20.84;35.01;102495.34;5074511;27;51260;-55
2022/01/20 01:32:17;;;;;;;;;7.00;6.25;;;;;20.84;35.29;102502.72;5058621;28;51199;-55
2022/01/20 01:34:48;;;;;;;;;6.00;6.00;;;;;20.82;35.38;102499.31;5066262;28;51364;-57
2022/01/20 01:40:05;;;;;;;;;5.00;4.00;;;;;20.81;35.13;102508.63;5065808;28;51088;-56
2022/01/20 01:42:38;;;;;;;;;7.00;6.25;;;;;20.79;35.46;102505.19;5057676;28;51169;-56
2022/01/20 01:45:19;;;;;;;;;6.25;6.25;;;;;20.78;35.46;102506.25;5065810;28;51301;-56
2022/01/20 01:47:46;;;;;;;;;5.25;5.25;;;;;20.77;35.31;102510.91;5068969;28;51058;-56
2022/01/20 01:50:13;;;;;;;;;7.00;5.50;;;;;20.77;35.14;102518.31;5067123;28;52015;-56
2022/01/20 01:52:38;;;;;;;;;8.25;6.25;;;;;20.76;35.40;102520.19;5066765;28;51053;-62
2022/01/20 01:55:04;;;;;;;;;6.00;6.00;;;;;20.74;35.22;102533.31;5063651;28;51087;-57
2022/01/20 01:57:30;;;;;;;;;5.50;5.50;;;;;20.73;35.22;102535.16;5065667;28;51035;-56
2022/01/20 01:59:56;;;;;;;;;4.25;4.25;;;;;20.72;35.59;102538.09;5075358;28;52004;-56
2022/01/20 02:02:22;;;;;;;;;4.75;4.00;;;;;20.72;35.40;102538.09;5072592;28;51098;-56
2022/01/20 02:04:48;;;;;;;;;5.75;5.75;;;;;20.71;35.06;102548.28;5061781;28;51037;-54
2022/01/20 02:20:42;;;;;;;;;5.75;5.00;;;;;20.66;35.68;102566.41;5060238;28;51094;-54
2022/01/20 02:23:07;;;;;;;;;4.25;4.25;;;;;20.65;35.54;102562.78;5065617;28;51148;-55
2022/01/20 02:25:35;;;;;;;;;4.00;4.00;;;;;20.64;35.77;102561.06;5057004;28;51659;-55
2022/01/20 02:28:03;;;;;;;;;4.75;4.00;;;;;20.63;35.37;102561.22;5071339;27;51308;-56
2022/01/20 02:30:30;;;;;;;;;6.25;4.25;;;;;20.61;35.64;102558.66;5056605;28;54327;-56
2022/01/20 02:33:01;;;;;;;;;6.00;4.50;;;;;20.62;35.36;102567.78;5063200;28;51436;-56
2022/01/20 02:35:30;;;;;;;;;7.50;5.00;;;;;20.61;35.46;102566.06;5059539;28;51201;-56
2022/01/20 02:38:01;;;;;;;;;3.50;3.50;;;;;20.61;35.49;102571.56;5066357;28;51150;-56
2022/01/20 02:45:54;;;;;;;;;3.25;3.25;;;;;20.56;35.64;102563.88;5056577;28;51148;-56
2022/01/20 02:48:20;;;;;;;;;3.00;3.00;;;;;20.56;35.32;102557.50;5057712;28;51301;-56
2022/01/20 02:50:45;;;;;;;;;6.25;4.75;;;;;20.55;35.71;102548.41;5056075;28;50990;-56
2022/01/20 02:53:11;;;;;;;;;4.25;4.00;;;;;20.54;35.57;102540.31;5072408;28;51062;-55
2022/01/20 02:55:36;;;;;;;;;3.75;3.75;;;;;20.53;35.51;102535.81;5075979;28;51050;-56
2022/01/20 02:58:01;;;;;;;;;5.25;5.25;;;;;20.53;35.50;102544.97;5073123;28;51001;-56
2022/01/20 03:00:28;;;;;;;;;6.00;4.00;;;;;20.52;35.27;102540.47;5074517;27;51259;-56
2022/01/20 03:02:55;;;;;;;;;3.75;3.75;;;;;20.51;35.17;102541.53;5057737;28;51199;-55
2022/01/20 03:05:21;;;;;;;;;3.00;3.00;;;;;20.51;35.29;102541.53;5056324;28;51061;-56
2022/01/20 03:07:46;;;;;;;;;5.00;4.00;;;;;20.50;35.61;102550.81;5057179;28;51124;-57
2022/01/20 03:10:12;;;;;;;;;3.50;3.50;;;;;20.49;35.23;102554.63;5055815;28;51075;-57
2022/01/20 03:12:37;;;;;;;;;6.25;5.25;;;;;20.49;35.27;102551.00;5072204;28;51076;-56
2022/01/20 03:15:03;;;;;;;;;4.25;4.25;;;;;20.47;35.53;102548.44;5056371;28;51199;-56
2022/01/20 03:17:30;;;;;;;;;4.00;4.00;;;;;20.45;35.54;102556.88;5057334;28;51052;-56
2022/01/20 03:19:55;;;;;;;;;4.25;4.25;;;;;20.46;35.52;102566.84;5056653;28;52019;-56
2022/01/20 03:22:21;;;;;;;;;3.00;3.00;;;;;20.46;35.57;102569.59;5071053;28;51051;-57
2022/01/20 03:24:46;;;;;;;;;6.00;4.25;;;;;20.45;35.26;102567.03;5055932;28;51273;-56
2022/01/20 03:27:12;;;;;;;;;4.00;4.00;;;;;20.44;35.50;102573.59;5063822;27;51329;-56
2022/01/20 03:29:37;;;;;;;;;4.00;3.75;;;;;20.45;35.30;102578.06;5057916;28;51106;-56
2022/01/20 03:32:03;;;;;;;;;3.50;3.50;;;;;20.45;35.78;102575.31;5069660;28;51109;-56
2022/01/20 03:34:28;;;;;;;;;3.00;3.00;;;;;20.44;35.49;102570.84;5055700;28;50994;-57
2022/01/20 03:36:54;;;;;;;;;5.00;3.50;;;;;20.44;35.24;102579.09;5062392;28;51149;-56
2022/01/20 03:39:19;;;;;;;;;4.75;4.00;;;;;20.43;35.43;102589.25;5055989;28;51920;-56
2022/01/20 03:41:45;;;;;;;;;3.00;3.00;;;;;20.43;35.34;102592.00;5064048;28;51095;-57
2022/01/20 03:44:10;;;;;;;;;5.00;3.00;;;;;20.42;35.46;102594.88;5064786;28;51207;-55
2022/01/20 03:46:36;;;;;;;;;3.00;3.00;;;;;20.41;35.67;102582.16;5061626;28;51168;-56
2022/01/20 03:49:09;;;;;;;;;3.00;3.00;;;;;20.40;35.48;102569.44;5074465;28;51170;-56
2022/01/20 03:51:35;;;;;;;;;6.25;4.25;;;;;20.39;35.15;102576.84;5055149;28;51631;-56
2022/01/20 03:54:03;;;;;;;;;3.00;3.00;;;;;20.39;35.41;102592.50;5058968;28;51085;-57
2022/01/20 03:56:29;;;;;;;;;4.25;3.50;;;;;20.39;35.81;102586.97;5065787;27;51105;-57
2022/01/20 03:58:54;;;;;;;;;3.25;3.00;;;;;20.38;35.59;102596.28;5058595;28;52548;-58
2022/01/20 04:01:20;;;;;;;;;5.50;4.75;;;;;20.38;35.25;102590.78;5075167;28;51032;-58
2022/01/20 04:03:45;;;;;;;;;6.50;4.50;;;;;20.37;34.87;102592.69;5073417;28;50974;-57
2022/01/20 04:06:11;;;;;;;;;4.50;3.25;;;;;20.35;34.54;102597.50;5073672;28;51266;-57
2022/01/20 04:08:40;;;;;;;;;6.00;4.00;;;;;20.35;34.63;102604.91;5074519;28;50941;-57
2022/01/20 04:11:08;;;;;;;;;4.25;3.25;;;;;20.33;34.26;102609.75;5075763;28;51556;-57
2022/01/20 04:13:34;;;;;;;;;5.00;4.00;;;;;20.32;34.29;102602.50;5077966;28;51055;-57
2022/01/20 04:16:02;;;;;;;;;5.00;5.00;;;;;20.32;34.16;102619.00;5069883;28;51310;-56
2022/01/20 04:18:29;;;;;;;;;4.00;4.00;;;;;20.30;33.82;102615.56;5078440;28;52118;-56
2022/01/20 04:20:55;;;;;;;;;4.25;3.50;;;;;20.28;33.69;102617.66;5077848;28;51269;-55
2022/01/20 04:23:20;;;;;;;;;6.50;5.00;;;;;20.27;34.10;102622.31;5078655;28;51028;-56
2022/01/20 04:25:46;;;;;;;;;7.25;5.00;;;;;20.24;33.72;102628.19;5077262;28;51267;-56
2022/01/20 04:28:11;;;;;;;;;4.25;2.50;;;;;20.23;33.63;102626.47;5075810;27;51875;-56
2022/01/20 04:30:37;;;;;;;;;4.75;4.75;;;;;20.21;33.68;102619.41;5078341;27;51092;-56
2022/01/20 04:33:02;;;;;;;;;7.00;6.75;;;;;20.17;33.30;102622.50;5076561;28;51151;-56
2022/01/20 04:35:28;;;;;;;;;6.75;4.50;;;;;20.17;33.16;102621.66;5075189;28;51284;-56
2022/01/20 04:37:55;;;;;;;;;6.25;4.50;;;;;20.13;33.26;102621.16;5058258;28;51119;-56
2022/01/20 04:40:21;;;;;;;;;8.25;6.00;;;;;20.11;33.33;102628.75;5059770;28;51842;-56
2022/01/20 04:42:48;;;;;;;;;5.25;4.75;;;;;20.10;33.06;102624.25;5076421;28;51082;-54
2022/01/20 04:45:20;;;;;;;;;6.25;3.00;;;;;20.07;33.39;102630.13;5076790;28;51115;-55
2022/01/20 04:58:23;;;;;;;;;6.00;6.00;;;;;19.96;33.16;102646.13;5073624;28;51189;-55
2022/01/20 05:00:48;;;;;;;;;4.75;3.75;;;;;19.93;33.09;102625.34;5060134;28;51220;-54
2022/01/20 05:03:14;;;;;;;;;5.00;4.00;;;;;19.91;32.92;102621.06;5067129;28;51129;-55
2022/01/20 05:05:39;;;;;;;;;8.25;6.00;;;;;19.87;33.01;102624.16;5066660;27;51339;-54
2022/01/20 05:08:05;;;;;;;;;6.75;4.75;;;;;19.84;33.21;102618.16;5072118;28;51084;-55
2022/01/20 05:10:33;;;;;;;;;4.75;4.00;;;;;19.80;33.14;102620.41;5066959;28;51130;-56
2022/01/20 05:15:25;;;;;;;;;4.00;3.25;;;;;19.77;33.14;102631.72;5065887;28;51318;-56
2022/01/20 05:17:54;;;;;;;;;3.75;3.75;;;;;19.76;33.24;102612.66;5060677;28;52284;-55
2022/01/20 05:20:20;;;;;;;;;5.00;3.00;;;;;19.74;33.35;102615.59;5069396;28;51051;-56
2022/01/20 05:22:45;;;;;;;;;4.00;4.00;;;;;19.73;33.80;102607.53;5076418;27;51251;-55
2022/01/20 05:25:11;;;;;;;;;4.00;3.75;;;;;19.71;33.43;102610.44;5074821;28;51297;-55
2022/01/20 05:27:36;;;;;;;;;3.00;3.00;;;;;19.71;33.44;102620.59;5073253;27;51711;-57
2022/01/20 05:30:03;;;;;;;;;5.75;2.75;;;;;19.70;33.50;102621.63;5077500;28;51206;-56
2022/01/20 05:32:28;;;;;;;;;3.00;3.00;;;;;19.68;33.54;102613.53;5077322;28;51125;-55
2022/01/20 05:34:53;;;;;;;;;4.00;3.00;;;;;19.69;33.77;102622.63;5059868;28;51155;-57
2022/01/20 05:37:19;;;;;;;;;4.00;2.00;;;;;19.67;33.86;102621.94;5059829;28;51010;-56
2022/01/20 05:39:45;;;;;;;;;2.00;2.00;;;;;19.68;33.94;102642.91;5077200;27;51153;-54
2022/01/20 05:42:10;;;;;;;;;4.75;3.50;;;;;19.69;33.85;102641.88;5076475;28;51070;-55
2022/01/20 05:44:36;;;;;;;;;5.00;5.00;;;;;19.69;33.61;102650.97;5064514;28;52139;-54
2022/01/20 05:47:09;;;;;;;;;4.75;3.50;;;;;19.70;33.30;102652.72;5057301;28;51917;-50
2022/01/20 05:49:34;;;;;;;;;4.75;3.50;;;;;19.69;33.41;102645.47;5056976;28;51296;-57
2022/01/20 05:51:59;;;;;;;;;3.25;3.00;;;;;19.70;33.47;102654.63;5057427;28;51053;-57
2022/01/20 05:54:25;;;;;;;;;5.00;4.50;;;;;19.74;33.42;102650.47;5075904;28;51122;-57
2022/01/20 05:56:51;;;;;;;;;3.00;2.00;;;;;19.79;33.10;102657.16;5074508;28;52014;-57
2022/01/20 05:59:16;;;;;;;;;4.25;4.25;;;;;19.85;33.33;102656.47;5076720;28;51089;-57
2022/01/20 06:01:45;;;;;;;;;4.25;2.00;;;;;19.90;33.02;102655.94;5077029;28;51065;-57
2022/01/20 06:04:11;;;;;;;;;7.50;3.75;;;;;19.96;33.05;102658.00;5068813;27;51314;-57
2022/01/20 06:06:37;;;;;;;;;2.00;2.00;;;;;20.02;32.93;102660.06;5069423;28;50917;-57
2022/01/20 06:09:04;;;;;;;;;3.50;3.50;;;;;20.08;32.98;102669.47;5069742;28;51044;-56
2022/01/20 06:11:30;;;;;;;;;2.00;2.00;;;;;20.14;33.16;102666.91;5062149;28;51180;-58
2022/01/20 06:13:56;;;;;;;;;4.50;3.25;;;;;20.20;32.74;102668.06;5073460;28;51073;-58
2022/01/20 06:16:22;;;;;;;;;2.00;2.00;;;;;20.26;32.79;102664.63;5076041;28;51606;-57
2022/01/20 06:18:47;;;;;;;;;2.75;2.25;;;;;20.31;32.90;102672.34;5070425;28;51310;-59
2022/01/20 06:21:12;;;;;;;;;4.25;3.00;;;;;20.35;32.80;102669.06;5064631;28;51146;-57
2022/01/20 06:23:40;;;;;;;;;7.50;4.50;;;;;20.40;33.07;102672.13;5065853;28;51430;-56
2022/01/20 06:26:05;;;;;;;;;3.00;3.00;;;;;20.46;33.52;102676.13;5075309;27;51172;-57
2022/01/20 06:28:35;;;;;;;;;6.25;3.75;;;;;20.51;33.38;102681.06;5076931;27;51141;-56
2022/01/20 06:31:01;;;;;;;;;6.50;5.00;;;;;20.54;33.24;102676.09;5074219;28;51215;-56
2022/01/20 06:33:27;;;;;;;;;2.50;2.50;;;;;20.61;33.21;102681.72;5060297;28;51255;-56
2022/01/20 06:35:52;;;;;;;;;5.75;4.00;;;;;20.65;33.35;102675.69;5074658;28;52729;-56
2022/01/20 06:38:18;;;;;;;;;3.00;2.25;;;;;20.71;33.06;102676.84;5065819;28;51113;-55
2022/01/20 06:40:44;;;;;;;;;3.00;3.00;;;;;20.75;33.28;102675.47;5059719;28;51221;-58
2022/01/20 06:43:09;;;;;;;;;2.00;1.00;;;;;20.80;33.59;102688.69;5074675;28;51002;-59
2022/01/20 06:45:35;;;;;;;;;1.75;1.75;;;;;20.86;33.45;102687.97;5068460;27;51182;-58
2022/01/20 06:48:00;;;;;;;;;5.25;2.75;;;;;20.90;33.54;102689.31;5060850;28;51090;-58
2022/01/20 06:50:26;;;;;;;;;4.00;2.75;;;;;20.94;33.32;102694.28;5073094;28;52568;-57
2022/01/20 06:52:52;;;;;;;;;5.75;1.00;;;;;21.00;33.92;102699.06;5058609;28;51229;-57
2022/01/20 06:55:18;;;;;;;;;4.75;2.50;;;;;21.05;33.69;102701.31;5065019;28;52094;-58
2022/01/20 06:57:44;;;;;;;;;3.75;3.00;;;;;21.10;33.75;102703.50;5058600;28;51136;-58
2022/01/20 07:00:16;;;;;;;;;3.50;2.25;;;;;21.16;33.53;102719.31;5072251;28;51191;-60
2022/01/20 07:02:43;;;;;;;;;2.25;2.25;;;;;21.21;33.82;102725.97;5069158;27;51005;-59
2022/01/20 07:05:11;;;;;;;;;3.00;3.00;;;;;21.27;33.88;102725.31;5072449;28;51369;-59
2022/01/20 07:07:36;;;;;;;;;2.50;2.00;;;;;21.32;33.65;102733.00;5062118;28;51189;-59
2022/01/20 07:10:03;;;;;;;;;2.75;2.25;;;;;21.38;33.38;102734.19;5064354;28;51098;-58
2022/01/20 07:12:29;;;;;;;;;3.75;2.00;;;;;21.42;33.42;102749.31;5076540;27;51267;-60
2022/01/20 07:14:54;;;;;;;;;3.00;3.00;;;;;21.48;33.07;102754.09;5066713;28;52951;-59
2022/01/20 07:17:20;;;;;;;;;3.00;3.00;;;;;21.52;33.12;102766.47;5069189;28;51171;-59
2022/01/20 07:19:45;;;;;;;;;3.00;3.00;;;;;21.56;32.99;102760.41;5060587;28;51163;-59
2022/01/20 07:22:10;;;;;;;;;3.75;2.25;;;;;21.60;33.38;102760.91;5073214;28;51236;-58
2022/01/20 07:24:37;;;;;;;;;2.75;2.00;;;;;21.65;32.71;102776.88;5065147;28;50923;-60
2022/01/20 07:27:03;;;;;;;;;4.50;3.00;;;;;21.69;32.59;102775.50;5067698;27;51036;-54
2022/01/20 07:29:30;;;;;;;;;4.75;4.00;;;;;21.71;32.25;102765.13;5072617;28;51177;-56
2022/01/20 07:31:56;;;;;;;;;6.00;3.00;;;;;21.72;32.49;102770.47;5068654;28;51192;-59
2022/01/20 07:34:21;;;;;;;;;2.50;2.50;;;;;21.73;31.91;102774.06;5062056;28;51959;-56
2022/01/20 07:36:47;;;;;;;;;4.50;4.00;;;;;21.76;32.43;102771.78;5056043;28;51143;-58
2022/01/20 07:39:12;;;;;;;;;4.50;3.00;;;;;21.79;32.56;102765.06;5073603;28;51137;-59
2022/01/20 07:41:37;;;;;;;;;4.00;3.00;;;;;21.83;32.07;102772.78;5066176;28;51379;-56
2022/01/20 07:44:03;;;;;;;;;4.50;4.00;;;;;21.88;32.31;102772.22;5063618;28;51433;-51
2022/01/20 07:46:28;;;;;;;;;4.75;3.50;;;;;21.93;32.34;102761.50;5063021;28;51132;-54
2022/01/20 07:48:54;;;;;;;;;4.50;3.50;;;;;22.00;32.59;102758.84;5071211;28;51180;-55
2022/01/20 07:51:19;;;;;;;;;6.75;4.75;;;;;22.04;32.58;102773.97;5060093;28;51067;-54
2022/01/20 07:53:45;;;;;;;;;6.00;4.25;;;;;22.08;32.79;102778.09;5061948;28;51624;-56
2022/01/20 07:56:10;;;;;;;;;7.50;5.00;;;;;22.12;32.15;102777.56;5062020;28;50975;-55
2022/01/20 07:58:37;;;;;;;;;6.00;3.00;;;;;22.16;32.31;102775.28;5061934;28;50989;-54
2022/01/20 08:01:04;;;;;;;;;4.50;3.75;;;;;22.19;32.19;102763.84;5062024;28;50983;-57
2022/01/20 08:03:30;;;;;;;;;5.75;5.00;;;;;22.24;32.24;102758.63;5061441;27;51282;-55
2022/01/20 08:05:55;;;;;;;;;4.75;4.25;;;;;22.29;32.62;102769.09;5061891;28;50986;-54
2022/01/20 08:08:20;;;;;;;;;5.25;3.00;;;;;22.35;32.51;102768.38;5062181;28;51055;-56
2022/01/20 08:10:46;;;;;;;;;6.25;3.25;;;;;22.40;32.51;102775.00;5062340;28;51618;-56
2022/01/20 08:13:11;;;;;;;;;5.75;4.00;;;;;22.46;32.70;102776.19;5061623;28;51051;-57
2022/01/20 08:15:36;;;;;;;;;5.25;4.00;;;;;22.52;32.74;102780.09;5066442;28;51128;-56
2022/01/20 08:18:02;;;;;;;;;4.25;4.25;;;;;22.57;32.34;102785.91;5082206;27;51151;-58
2022/01/20 08:20:28;;;;;;;;;4.00;3.50;;;;;22.61;32.09;102788.06;5080801;28;51454;-56
2022/01/20 08:22:53;;;;;;;;;6.00;3.50;;;;;22.66;32.11;102784.75;5081909;28;51035;-57
2022/01/20 08:25:19;;;;;;;;;3.50;2.50;;;;;22.72;32.34;102781.25;5082129;27;51170;-57
2022/01/20 08:27:48;;;;;;;;;5.50;2.50;;;;;22.77;32.24;102781.53;5081695;28;51127;-55
2022/01/20 08:30:19;;;;;;;;;2.25;2.25;;;;;22.81;32.19;102784.75;5082244;28;50967;-57
2022/01/20 08:32:46;;;;;;;;;3.50;2.75;;;;;22.86;32.22;102771.25;5081580;27;51013;-55
2022/01/20 08:35:12;;;;;;;;;3.75;2.25;;;;;22.90;32.29;102775.34;5082173;27;50966;-56
2022/01/20 08:37:40;;;;;;;;;4.00;3.25;;;;;22.93;32.35;102789.66;5081764;27;51134;-57
2022/01/20 08:40:14;;;;;;;;;5.50;3.50;;;;;22.96;32.12;102789.25;5082207;27;51139;-58
2022/01/20 08:42:45;;;;;;;;;2.25;2.25;;;;;23.00;32.42;102793.34;5080402;28;53024;-55
2022/01/20 08:45:14;;;;;;;;;4.00;2.50;;;;;23.06;32.49;102801.94;5081892;27;51045;-57
2022/01/20 08:47:40;;;;;;;;;3.75;3.00;;;;;;;;5082041;27;51017;-56
2022/01/20 08:50:07;;;;;;;;;3.25;3.00;;;;;23.13;32.49;102795.41;5081324;27;51112;-52
2022/01/20 08:52:33;;;;;;;;;3.00;2.00;;;;;23.18;32.55;102805.91;5081000;28;50958;-57
2022/01/20 08:54:59;;;;;;;;;5.00;2.75;;;;;23.22;33.00;102805.31;5081763;28;51141;-56
2022/01/20 08:57:26;;;;;;;;;3.50;2.25;;;;;23.26;32.98;102803.03;5080483;27;51206;-55
2022/01/20 08:59:51;;;;;;;;;4.00;3.25;;;;;23.29;32.90;102797.09;5078207;27;51183;-56
2022/01/20 09:02:18;;;;;;;;;5.75;4.75;;;;;23.35;33.00;102795.50;5077939;27;51739;-55
2022/01/20 09:04:43;;;;;;;;;2.50;2.50;;;;;23.37;32.88;102788.69;5078354;28;51093;-56
2022/01/20 09:07:09;;;;;;;;;2.25;2.25;;;;;23.42;32.65;102800.03;5078078;27;51286;-55
2022/01/20 09:09:40;;;;;;;;;4.00;2.00;;;;;23.46;33.02;102806.03;5078380;28;51162;-55
2022/01/20 09:17:21;;;;;;;;;3.00;1.75;;;;;23.58;32.52;102804.47;5077976;28;51075;-56
2022/01/20 09:19:48;;;;;;;;;4.00;3.00;;;;;23.63;33.03;102809.44;5078047;27;50964;-59
2022/01/20 09:22:14;;;;;;;;;4.00;3.00;;;;;23.67;32.96;102813.53;5077844;27;52074;-58
2022/01/20 09:24:39;;;;;;;;;3.75;2.50;;;;;23.70;32.45;102824.19;5077617;27;51386;-55
2022/01/20 09:27:04;;;;;;;;;3.00;3.00;;;;;23.72;32.54;102824.84;5077624;28;51085;-54
2022/01/20 09:29:30;;;;;;;;;2.00;2.00;;;;;23.76;32.81;102829.81;5078126;28;51342;-55
2022/01/20 09:31:55;;;;;;;;;1.00;1.00;;;;;23.80;32.92;102836.66;5076228;28;51934;-57
2022/01/20 09:34:21;;;;;;;;;3.00;2.75;;;;;23.83;32.55;102846.47;5077594;27;51080;-54
2022/01/20 09:36:46;;;;;;;;;3.00;3.00;;;;;23.87;32.89;102853.34;5077652;28;51018;-56
2022/01/20 09:39:12;;;;;;;;;4.50;3.50;;;;;23.91;32.68;102851.88;5077909;27;50997;-50
2022/01/20 09:41:38;;;;;;;;;2.00;2.00;;;;;23.95;32.53;102849.56;5077786;27;50946;-54
2022/01/20 09:44:05;;;;;;;;;5.25;3.50;;;;;23.98;32.34;102854.72;5070650;27;51032;-52
2022/01/20 09:46:31;;;;;;;;;1.00;1.00;;;;;24.02;32.09;102856.03;5064195;28;51214;-53
2022/01/20 09:48:57;;;;;;;;;5.00;3.50;;;;;24.05;32.24;102856.50;5068531;28;51297;-50
2022/01/20 09:51:23;;;;;;;;;3.00;3.00;;;;;24.10;32.34;102851.22;5065526;28;51986;-48
2022/01/20 09:53:48;;;;;;;;;3.75;3.00;;;;;24.14;32.49;102837.84;5061002;28;51195;-49
2022/01/20 09:56:14;;;;;;;;;3.00;3.00;;;;;24.17;32.03;102831.88;5066611;28;51036;-51
2022/01/20 09:58:39;;;;;;;;;5.00;3.25;;;;;24.22;32.35;102839.63;5068421;28;51194;-52
2022/01/20 10:01:05;;;;;;;;;3.50;3.50;;;;;24.25;32.17;102839.19;5065413;28;52116;-54
2022/01/20 10:03:31;;;;;;;;;3.00;2.75;;;;;24.28;32.30;102839.69;5059054;28;51120;-55
2022/01/20 10:06:00;;;;;;;;;2.25;2.25;;;;;24.32;32.21;102831.84;5067999;28;51128;-56
2022/01/20 10:08:28;;;;;;;;;3.75;3.75;;;;;24.34;32.26;102836.13;5067250;28;51209;-53
2022/01/20 10:10:55;;;;;;;;;5.25;4.75;;;;;24.36;32.36;102852.53;5065418;28;53204;-53
2022/01/20 10:13:41;;;;;;;;;6.50;3.00;;;;;24.35;31.54;102853.59;5065339;28;51109;-55
2022/01/20 10:16:16;;;;;;;;;5.75;4.00;;;;;24.33;31.49;102853.81;5065853;28;51193;-53
2022/01/20 10:18:53;;;;;;;;;5.75;4.25;;;;;24.33;31.36;102856.56;5070154;28;51128;-49
2022/01/20 10:21:27;;;;;;;;;3.25;3.00;;;;;24.34;31.22;102860.19;5069123;28;52028;-52
2022/01/20 10:23:53;;;;;;;;;3.75;3.75;;;;;24.37;31.33;102877.25;5060320;28;51079;-53
2022/01/20 10:26:21;;;;;;;;;2.25;2.25;;;;;24.40;31.07;102876.03;5073482;27;51066;-52
2022/01/20 10:28:51;;;;;;;;;7.25;4.00;;;;;24.44;31.30;102888.41;5068006;27;51186;-53
2022/01/20 10:31:19;;;;;;;;;3.25;3.25;;;;;24.45;31.15;102882.66;5063393;28;51976;-53
2022/01/20 10:33:46;;;;;;;;;2.75;2.75;;;;;24.48;31.19;102878.63;5064785;28;51091;-53
2022/01/20 10:36:12;;;;;;;;;1.00;1.00;;;;;24.51;31.22;102883.78;5060847;28;51139;-51
2022/01/20 10:38:55;;;;;;;;;2.25;2.25;;;;;24.54;31.41;102894.47;5063526;27;51039;-50
2022/01/20 10:41:32;;;;;;;;;2.75;2.75;;;;;24.57;30.98;102891.28;5065472;28;52766;-51
2022/01/20 10:44:05;;;;;;;;;2.75;2.00;;;;;24.59;31.34;102893.84;5065556;28;51083;-51
2022/01/20 10:46:48;;;;;;;;;4.50;2.50;;;;;24.59;30.97;102902.16;5065865;28;51139;-51
2022/01/20 10:49:14;;;;;;;;;3.50;3.00;;;;;24.55;30.47;102890.63;5062823;28;51079;-52
2022/01/20 10:51:40;;;;;;;;;3.50;3.50;;;;;24.52;30.49;102906.81;5064677;28;52125;-52
2022/01/20 10:54:13;;;;;;;;;9.25;8.00;;;;;24.44;30.15;102905.03;5062710;28;51226;-48
2022/01/20 10:56:51;;;;;;;;;6.00;5.25;;;;;24.34;30.40;102905.38;5065790;28;51017;-52
2022/01/20 10:59:18;;;;;;;;;5.75;5.00;;;;;24.26;30.60;102901.84;5065606;27;51076;-50
2022/01/20 11:01:43;;;;;;;;;5.50;4.50;;;;;24.17;30.24;102893.66;5065984;28;51979;-50
2022/01/20 11:04:09;;;;;;;;;6.75;6.25;;;;;24.07;30.22;102893.16;5074396;28;51097;-52
2022/01/20 11:06:36;;;;;;;;;10.50;5.25;;;;;23.99;30.32;102896.06;5069930;27;51054;-47
2022/01/20 11:09:06;;;;;;;;;8.00;6.75;;;;;23.90;30.65;102900.84;5062986;28;51349;-52
2022/01/20 11:11:33;;;;;;;;;7.25;5.50;;;;;23.83;30.51;102896.28;5065157;28;51808;-48
2022/01/20 11:13:59;;;;;;;;;9.00;5.75;;;;;23.77;30.00;102905.38;5064374;27;51617;-52
2022/01/20 11:16:25;;;;;;;;;9.75;8.50;;;;;23.70;30.41;102898.91;5067086;28;51285;-54
2022/01/20 11:18:50;;;;;;;;;5.00;4.75;;;;;23.65;30.58;102902.25;5064843;28;51039;-51
2022/01/20 11:21:26;;;;;;;;;10.00;7.75;;;;;23.58;30.35;102888.34;5064553;28;51085;-49
2022/01/20 11:23:52;;;;;;;;;9.00;8.25;;;;;23.52;30.18;102891.84;5062967;28;51379;-51
2022/01/20 11:26:18;;;;;;;;;14.00;10.00;;;;;23.48;30.40;102890.53;5070070;27;50989;-51
2022/01/20 11:29:00;;;;;;;;;10.50;8.50;;;;;23.39;30.46;102888.91;5063792;28;51037;-51
2022/01/20 11:31:31;;;;;;;;;9.25;6.25;;;;;23.31;30.51;102886.25;5057431;28;51084;-52
2022/01/20 11:33:56;;;;;;;;;7.00;6.75;;;;;23.24;30.37;102888.94;5062356;28;51398;-52
2022/01/20 11:36:23;;;;;;;;;6.00;6.00;;;;;23.21;30.68;102883.78;5063452;28;51492;-51
2022/01/20 11:38:50;;;;;;;;;9.00;6.75;;;;;23.16;30.35;102877.13;5062409;28;51407;-53
2022/01/20 11:41:17;;;;;;;;;5.50;5.50;;;;;23.11;30.53;102880.44;5064284;28;51121;-53
2022/01/20 11:43:46;;;;;;;;;7.00;7.00;;;;;23.06;30.40;102871.88;5063065;28;51083;-52
2022/01/20 11:46:17;;;;;;;;;6.50;6.00;;;;;23.02;30.31;102876.91;5063815;28;51133;-53
2022/01/20 11:48:58;;;;;;;;;6.00;5.50;;;;;23.00;30.51;102883.69;5063595;28;51069;-54
2022/01/20 11:51:44;;;;;;;;;6.75;6.25;;;;;22.97;30.72;102887.69;5066347;28;51708;-53
2022/01/20 11:54:14;;;;;;;;;7.25;5.75;;;;;22.93;30.45;102889.16;5062052;28;51574;-48
2022/01/20 11:56:42;;;;;;;;;8.50;5.00;;;;;22.90;30.76;102888.66;5063927;28;51018;-53
2022/01/20 11:59:11;;;;;;;;;8.25;6.00;;;;;22.86;30.79;102882.66;5063455;28;51208;-53
2022/01/20 12:01:52;;;;;;;;;7.75;5.50;;;;;22.83;31.02;102883.00;5064837;28;52681;-52
2022/01/20 12:04:29;;;;;;;;;11.00;6.75;;;;;22.81;30.86;102881.44;5054459;28;51032;-51
2022/01/20 12:06:54;;;;;;;;;6.00;5.50;;;;;22.76;30.56;102893.09;5066246;28;51335;-53
2022/01/20 12:09:28;;;;;;;;;6.25;4.25;;;;;22.74;30.55;102889.66;5062527;28;51407;-53
2022/01/20 12:11:54;;;;;;;;;6.75;5.00;;;;;22.69;30.55;102887.44;5063219;28;51692;-52
2022/01/20 12:14:35;;;;;;;;;5.25;5.25;;;;;22.66;30.61;102893.34;5060807;28;51322;-54
2022/01/20 12:17:07;;;;;;;;;7.00;6.00;;;;;22.63;30.18;102898.41;5063973;27;51176;-52
2022/01/20 12:19:32;;;;;;;;;5.50;4.75;;;;;22.58;30.54;102887.03;5064334;28;51070;-55
2022/01/20 12:21:58;;;;;;;;;6.75;3.50;;;;;22.55;30.46;102892.94;5063088;28;52129;-57
2022/01/20 12:24:23;;;;;;;;;9.50;5.25;;;;;22.52;30.11;102885.06;5063328;28;51025;-57
2022/01/20 12:26:49;;;;;;;;;7.50;4.75;;;;;22.51;29.93;102886.06;5071725;27;51414;-57
2022/01/20 12:29:14;;;;;;;;;6.50;5.75;;;;;22.51;30.26;102895.25;5063107;28;51166;-58
2022/01/20 12:31:55;;;;;;;;;5.00;3.25;;;;;22.54;30.31;102892.09;5071607;28;51973;-58
2022/01/20 12:34:21;;;;;;;;;5.50;4.50;;;;;22.56;30.03;102897.44;5063750;28;51314;-58
2022/01/20 12:36:58;;;;;;;;;4.75;4.00;;;;;22.60;29.90;102887.72;5069065;28;50971;-58
2022/01/20 12:39:28;;;;;;;;;5.25;3.50;;;;;22.62;30.44;102886.50;5067446;28;51355;-58
2022/01/20 12:41:55;;;;;;;;;5.25;4.00;;;;;22.67;30.21;102883.16;5066812;28;51858;-56
2022/01/20 12:44:20;;;;;;;;;8.50;5.75;;;;;22.71;30.89;102881.72;5066871;28;51168;-56
2022/01/20 12:46:46;;;;;;;;;5.75;4.50;;;;;22.75;30.62;102883.09;5066059;28;51139;-59